createdAt,value
2022-12-28T00:00:11.068Z,5.50
2022-12-28T00:03:02.700Z,5.47
2022-12-28T00:05:31.095Z,5.45
2022-12-28T00:07:59.300Z,5.43
2022-12-28T00:11:08.086Z,5.36
2022-12-28T00:13:15.937Z,5.29
2022-12-28T00:15:44.128Z,5.26
2022-12-28T00:18:12.329Z,5.26
2022-12-28T00:20:40.548Z,5.24
2022-12-28T00:23:08.936Z,5.20
2022-12-28T00:25:37.132Z,5.19
2022-12-28T00:28:05.799Z,5.21
2022-12-28T00:30:34.026Z,5.22
2022-12-28T00:33:02.258Z,5.22
2022-12-28T00:35:30.549Z,5.22
2022-12-28T00:37:58.752Z,5.23
2022-12-28T00:40:27.009Z,5.23
2022-12-28T00:42:55.246Z,5.24
2022-12-28T00:45:24.968Z,5.23
2022-12-28T00:47:53.185Z,5.25
2022-12-28T00:50:21.470Z,5.29
2022-12-28T00:52:49.702Z,5.32
2022-12-28T00:55:17.981Z,5.34
2022-12-28T00:57:46.166Z,5.34
2022-12-28T01:00:16.517Z,5.34
2022-12-28T01:02:54.182Z,5.34
2022-12-28T01:05:22.874Z,5.37
2022-12-28T01:07:51.328Z,5.38
2022-12-28T01:10:19.670Z,5.40
2022-12-28T01:12:51.208Z,5.41
2022-12-28T01:15:21.435Z,5.44
2022-12-28T01:17:49.621Z,5.45
2022-12-28T01:20:18.067Z,5.45
2022-12-28T01:22:48.804Z,5.45
2022-12-28T01:25:17.239Z,5.45
2022-12-28T01:27:45.498Z,5.44
2022-12-28T01:30:19.852Z,5.40
2022-12-28T01:32:48.032Z,5.41
2022-12-28T01:35:16.431Z,5.40
2022-12-28T01:37:44.617Z,5.37
2022-12-28T01:40:15.436Z,5.35
2022-12-28T01:42:43.672Z,5.33
2022-12-28T01:45:17.652Z,5.31
2022-12-28T01:47:49.031Z,5.30
2022-12-28T01:50:22.130Z,5.29
2022-12-28T01:52:55.155Z,5.28
2022-12-28T01:55:27.364Z,5.24
2022-12-28T01:57:58.564Z,5.19
2022-12-28T02:00:26.831Z,5.15
2022-12-28T02:02:58.691Z,5.13
2022-12-28T02:05:30.840Z,5.12
2022-12-28T02:08:04.844Z,5.09
2022-12-28T02:10:43.820Z,5.02
2022-12-28T02:13:15.490Z,4.94
2022-12-28T02:15:44.818Z,4.85
2022-12-28T02:18:15.371Z,4.76
2022-12-28T02:21:01.696Z,4.68
2022-12-28T02:23:44.557Z,4.60
2022-12-28T02:26:46.403Z,4.51
2022-12-28T02:29:46.542Z,4.44
2022-12-28T02:35:20.273Z,4.30
2022-12-28T02:37:55.093Z,4.23
2022-12-28T02:40:28.774Z,4.17
2022-12-28T02:43:02.821Z,4.16
2022-12-28T02:45:55.471Z,4.13
2022-12-28T02:48:42.153Z,4.11
2022-12-28T02:51:34.252Z,4.10
2022-12-28T02:54:48.820Z,4.08
2022-12-28T02:57:33.112Z,4.02
2022-12-28T03:00:06.827Z,3.97
2022-12-28T03:03:01.425Z,3.92
2022-12-28T03:05:54.227Z,3.90
2022-12-28T03:08:46.934Z,3.86
2022-12-28T03:11:19.301Z,3.84
2022-12-28T03:14:04.230Z,3.81
2022-12-28T03:17:00.259Z,3.79
2022-12-28T03:20:03.763Z,3.76
2022-12-28T03:23:00.300Z,3.74
2022-12-28T03:25:55.451Z,3.74
2022-12-28T03:28:48.970Z,3.70
2022-12-28T03:31:22.826Z,3.65
2022-12-28T03:34:05.832Z,3.56
2022-12-28T03:36:51.785Z,3.46
2022-12-28T03:39:27.428Z,3.39
2022-12-28T03:42:17.572Z,3.34
2022-12-28T03:44:51.988Z,3.32
2022-12-28T03:47:24.924Z,3.32
2022-12-28T03:49:53.191Z,3.34
2022-12-28T03:52:22.068Z,3.31
2022-12-28T03:54:51.042Z,3.32
2022-12-28T03:57:25.716Z,3.34
2022-12-28T03:59:54.967Z,3.39
2022-12-28T04:02:24.506Z,3.41
2022-12-28T04:04:53.331Z,3.43
2022-12-28T04:07:21.588Z,3.40
2022-12-28T04:09:50.153Z,3.36
2022-12-28T04:12:18.332Z,3.35
2022-12-28T04:15:07.084Z,3.39
2022-12-28T04:17:35.984Z,3.43
2022-12-28T04:20:06.054Z,3.41
2022-12-28T04:22:34.768Z,3.35
2022-12-28T04:25:05.326Z,3.30
2022-12-28T04:27:35.465Z,3.22
2022-12-28T04:30:11.037Z,3.18
2022-12-28T04:32:39.316Z,3.20
2022-12-28T04:35:08.692Z,3.19
2022-12-28T04:37:44.835Z,3.20
2022-12-28T04:40:13.646Z,3.17
2022-12-28T04:42:41.849Z,3.16
2022-12-28T04:45:10.977Z,3.15
2022-12-28T04:47:39.172Z,3.13
2022-12-28T04:50:08.511Z,3.16
2022-12-28T04:52:36.662Z,3.22
2022-12-28T04:55:05.812Z,3.27
2022-12-28T04:57:34.066Z,3.29
2022-12-28T05:00:02.288Z,3.32
2022-12-28T05:02:31.514Z,3.30
2022-12-28T05:04:59.852Z,3.30
2022-12-28T05:07:28.728Z,3.32
2022-12-28T05:09:57.086Z,3.32
2022-12-28T05:12:25.856Z,3.28
2022-12-28T05:14:54.043Z,3.25
2022-12-28T05:17:22.211Z,3.21
2022-12-28T05:19:50.363Z,3.17
2022-12-28T05:22:18.584Z,3.16
2022-12-28T05:24:46.815Z,3.11
2022-12-28T05:27:15.002Z,3.08
2022-12-28T05:29:43.217Z,3.10
2022-12-28T05:32:11.386Z,3.06
2022-12-28T05:34:41.906Z,3.08
2022-12-28T05:37:10.543Z,3.11
2022-12-28T05:39:38.708Z,3.11
2022-12-28T05:42:07.124Z,3.13
2022-12-28T05:44:35.463Z,3.16
2022-12-28T05:47:03.757Z,3.20
2022-12-28T05:49:31.966Z,3.25
2022-12-28T05:52:00.131Z,3.28
2022-12-28T05:54:28.321Z,3.32
2022-12-28T05:56:56.491Z,3.29
2022-12-28T05:59:29.155Z,3.23
2022-12-28T06:01:58.646Z,3.20
2022-12-28T06:04:27.072Z,3.13
2022-12-28T06:06:55.272Z,3.10
2022-12-28T06:09:23.465Z,3.14
2022-12-28T06:11:51.608Z,3.15
2022-12-28T06:14:19.773Z,3.19
2022-12-28T06:16:48.014Z,3.21
2022-12-28T06:19:17.562Z,3.19
2022-12-28T06:21:45.711Z,3.18
2022-12-28T06:24:13.896Z,3.18
2022-12-28T06:26:42.291Z,3.19
2022-12-28T06:29:10.951Z,3.19
2022-12-28T06:31:41.210Z,3.16
2022-12-28T06:34:10.116Z,3.16
2022-12-28T06:36:40.517Z,3.15
2022-12-28T06:39:10.052Z,3.10
2022-12-28T06:41:39.022Z,3.08
2022-12-28T06:44:07.870Z,3.05
2022-12-28T06:46:36.909Z,3.05
2022-12-28T06:49:05.291Z,3.06
2022-12-28T06:51:37.803Z,3.08
2022-12-28T06:54:07.026Z,3.10
2022-12-28T06:56:35.907Z,3.13
2022-12-28T06:59:04.914Z,3.10
2022-12-28T07:01:35.115Z,3.10
2022-12-28T07:04:06.178Z,3.13
2022-12-28T07:06:37.290Z,3.13
2022-12-28T07:09:07.741Z,3.17
2022-12-28T07:11:36.795Z,3.17
2022-12-28T07:14:05.073Z,3.15
2022-12-28T07:19:01.393Z,3.15
2022-12-28T07:21:31.046Z,3.13
2022-12-28T07:23:59.854Z,3.17
2022-12-28T07:26:30.051Z,3.25
2022-12-28T07:29:00.511Z,3.32
2022-12-28T07:31:30.956Z,3.39
2022-12-28T07:34:00.496Z,3.39
2022-12-28T07:36:30.559Z,3.46
2022-12-28T07:38:59.599Z,3.56
2022-12-28T07:41:29.628Z,3.60
2022-12-28T07:43:58.858Z,3.68
2022-12-28T07:46:29.156Z,3.69
2022-12-28T07:48:58.056Z,3.76
2022-12-28T07:51:28.480Z,3.86
2022-12-28T07:53:58.645Z,3.94
2022-12-28T07:56:28.630Z,3.99
2022-12-28T07:58:58.828Z,4.00
2022-12-28T08:01:29.221Z,4.05
2022-12-28T08:03:59.800Z,4.17
2022-12-28T08:06:29.911Z,4.22
2022-12-28T08:09:00.859Z,4.27
2022-12-28T08:11:31.287Z,4.33
2022-12-28T08:14:00.426Z,4.41
2022-12-28T08:16:30.814Z,4.48
2022-12-28T08:18:59.507Z,4.54
2022-12-28T08:21:29.515Z,4.63
2022-12-28T08:23:58.540Z,4.75
2022-12-28T08:26:29.233Z,4.77
2022-12-28T08:29:00.039Z,4.84
2022-12-28T08:31:30.406Z,4.87
2022-12-28T08:34:00.197Z,4.92
2022-12-28T08:36:29.031Z,4.96
2022-12-28T08:38:57.662Z,5.03
2022-12-28T08:41:27.474Z,5.05
2022-12-28T08:43:56.443Z,5.11
2022-12-28T08:46:26.560Z,5.15
2022-12-28T08:48:56.886Z,5.18
2022-12-28T08:51:26.819Z,5.22
2022-12-28T08:53:55.025Z,5.26
2022-12-28T08:56:25.186Z,5.34
2022-12-28T08:58:54.209Z,5.38
2022-12-28T09:01:24.206Z,5.41
2022-12-28T09:03:54.722Z,5.41
2022-12-28T09:06:26.075Z,5.43
2022-12-28T09:09:05.507Z,5.39
2022-12-28T09:11:36.269Z,5.38
2022-12-28T09:14:05.697Z,5.41
2022-12-28T09:16:34.504Z,5.42
2022-12-28T09:19:05.023Z,5.43
2022-12-28T09:21:35.188Z,5.44
2022-12-28T09:24:04.407Z,5.48
2022-12-28T09:26:36.295Z,5.50
2022-12-28T09:29:06.460Z,5.51
2022-12-28T09:31:36.539Z,5.49
2022-12-28T09:36:53.847Z,5.50
2022-12-28T09:39:23.863Z,5.48
2022-12-28T09:41:56.123Z,5.45
2022-12-28T09:44:48.903Z,5.47
2022-12-28T09:47:33.678Z,5.48
2022-12-28T09:50:16.782Z,5.48
2022-12-28T09:52:56.052Z,5.53
2022-12-28T09:55:26.198Z,5.62
2022-12-28T09:57:57.260Z,5.71
2022-12-28T10:00:31.625Z,5.76
2022-12-28T10:03:03.427Z,5.81
2022-12-28T10:05:31.976Z,5.86
2022-12-28T10:08:00.229Z,5.92
2022-12-28T10:10:29.299Z,5.99
2022-12-28T10:13:37.155Z,6.00
2022-12-28T10:15:59.108Z,5.97
2022-12-28T10:18:28.561Z,5.94
2022-12-28T10:20:57.068Z,5.94
2022-12-28T10:23:29.445Z,5.97
2022-12-28T10:26:00.507Z,6.04
2022-12-28T10:28:32.992Z,6.09
2022-12-28T10:31:07.329Z,6.10
2022-12-28T10:33:39.834Z,6.15
2022-12-28T10:36:12.552Z,6.18
2022-12-28T10:38:43.196Z,6.18
2022-12-28T10:41:15.151Z,6.19
2022-12-28T10:44:08.596Z,6.17
2022-12-28T10:46:38.225Z,6.17
2022-12-28T10:49:15.706Z,6.18
2022-12-28T10:51:59.523Z,6.23
2022-12-28T10:54:31.303Z,6.23
2022-12-28T10:56:59.564Z,6.27
2022-12-28T10:59:29.716Z,6.26
2022-12-28T11:02:22.182Z,6.25
2022-12-28T11:04:58.983Z,6.24
2022-12-28T11:07:33.031Z,6.22
2022-12-28T11:10:24.157Z,6.21
2022-12-28T11:12:54.171Z,6.26
2022-12-28T11:15:25.012Z,6.29
2022-12-28T11:17:58.385Z,6.34
2022-12-28T11:20:31.805Z,6.39
2022-12-28T11:23:00.749Z,6.43
2022-12-28T11:25:32.848Z,6.44
2022-12-28T11:28:04.884Z,6.45
2022-12-28T11:30:33.046Z,6.48
2022-12-28T11:33:04.168Z,6.49
2022-12-28T11:35:37.044Z,6.46
2022-12-28T11:38:06.888Z,6.41
2022-12-28T11:40:51.555Z,6.38
2022-12-28T11:43:52.549Z,6.32
2022-12-28T11:46:39.454Z,6.35
2022-12-28T11:49:27.305Z,6.38
2022-12-28T11:52:43.492Z,6.42
2022-12-28T11:55:50.457Z,6.46
2022-12-28T11:58:43.692Z,6.54
2022-12-28T12:01:42.497Z,6.63
2022-12-28T12:04:38.192Z,6.70
2022-12-28T12:07:20.054Z,6.74
2022-12-28T12:09:49.724Z,6.79
2022-12-28T12:12:36.667Z,6.79
2022-12-28T12:15:12.536Z,6.83
2022-12-28T12:17:47.524Z,6.86
2022-12-28T12:20:48.456Z,6.92
2022-12-28T12:23:38.656Z,6.79
2022-12-28T12:26:20.322Z,6.29
2022-12-28T12:28:50.551Z,6.29
2022-12-28T12:31:28.127Z,6.57
2022-12-28T12:34:03.462Z,6.73
2022-12-28T12:36:47.208Z,6.81
2022-12-28T12:39:31.461Z,6.91
2022-12-28T12:42:09.872Z,6.98
2022-12-28T12:44:46.102Z,7.05
2022-12-28T12:47:39.407Z,7.09
2022-12-28T12:50:20.191Z,7.08
2022-12-28T12:53:00.821Z,7.10
2022-12-28T12:55:42.241Z,7.15
2022-12-28T12:58:21.397Z,7.18
2022-12-28T13:01:08.806Z,7.23
2022-12-28T13:03:43.978Z,7.27
2022-12-28T13:06:15.597Z,7.33
2022-12-28T13:08:46.754Z,7.41
2022-12-28T13:11:17.456Z,7.45
2022-12-28T13:13:48.760Z,7.51
2022-12-28T13:16:20.176Z,7.52
2022-12-28T13:18:56.612Z,7.50
2022-12-28T13:21:27.264Z,7.47
2022-12-28T13:23:55.897Z,7.43
2022-12-28T13:26:28.411Z,7.41
2022-12-28T13:28:59.657Z,7.40
2022-12-28T13:31:33.671Z,7.41
2022-12-28T13:34:04.044Z,7.36
2022-12-28T13:36:32.645Z,7.29
2022-12-28T13:39:04.533Z,7.27
2022-12-28T13:41:34.847Z,7.27
2022-12-28T13:44:26.567Z,7.18
2022-12-28T13:47:01.679Z,6.73
2022-12-28T13:49:35.905Z,6.55
2022-12-28T13:52:08.673Z,6.72
2022-12-28T13:54:38.074Z,6.83
2022-12-28T13:57:44.523Z,6.87
2022-12-28T13:59:57.115Z,6.91
2022-12-28T14:02:28.125Z,6.93
2022-12-28T14:04:56.792Z,6.88
2022-12-28T14:07:28.968Z,6.83
2022-12-28T14:09:58.176Z,6.84
2022-12-28T14:12:27.384Z,6.83
2022-12-28T14:14:56.427Z,6.79
2022-12-28T14:17:27.730Z,6.80
2022-12-28T14:19:57.723Z,6.81
2022-12-28T14:22:28.783Z,6.71
2022-12-28T14:25:07.000Z,6.67
2022-12-28T14:27:39.457Z,6.67
2022-12-28T14:30:21.945Z,6.62
2022-12-28T14:32:50.719Z,6.57
2022-12-28T14:35:22.335Z,6.52
2022-12-28T14:37:51.955Z,6.49
2022-12-28T14:40:26.051Z,6.42
2022-12-28T14:42:56.114Z,6.37
2022-12-28T14:46:07.485Z,6.33
2022-12-28T14:48:32.325Z,6.29
2022-12-28T14:51:04.249Z,6.24
2022-12-28T14:53:33.332Z,6.23
2022-12-28T14:56:06.684Z,6.24
2022-12-28T14:58:40.929Z,6.23
2022-12-28T15:01:09.649Z,6.22
2022-12-28T15:03:52.687Z,6.20
2022-12-28T15:06:21.499Z,6.17
2022-12-28T15:08:58.171Z,6.13
2022-12-28T15:11:31.137Z,6.09
2022-12-28T15:14:01.359Z,6.04
2022-12-28T15:16:29.710Z,6.01
2022-12-28T15:18:58.067Z,6.00
2022-12-28T15:21:45.478Z,5.98
2022-12-28T15:24:15.807Z,5.96
2022-12-28T15:26:46.213Z,5.95
2022-12-28T15:29:22.161Z,5.95
2022-12-28T15:32:02.986Z,5.94
2022-12-28T15:34:31.161Z,5.93
2022-12-28T15:37:00.705Z,5.91
2022-12-28T15:39:34.131Z,5.86
2022-12-28T15:42:02.596Z,5.86
2022-12-28T15:44:30.890Z,5.86
2022-12-28T15:46:59.264Z,5.87
2022-12-28T15:49:27.530Z,5.84
2022-12-28T15:51:55.796Z,5.83
2022-12-28T15:54:23.993Z,5.80
2022-12-28T15:56:54.149Z,5.80
2022-12-28T15:59:22.756Z,5.81
2022-12-28T16:01:51.273Z,5.81
2022-12-28T16:04:19.972Z,5.79
2022-12-28T16:06:48.181Z,5.78
2022-12-28T16:09:16.417Z,5.81
2022-12-28T16:11:46.578Z,5.80
2022-12-28T16:14:18.700Z,5.78
2022-12-28T16:16:46.960Z,5.76
2022-12-28T16:19:16.543Z,5.73
2022-12-28T16:21:44.904Z,5.70
2022-12-28T16:24:13.084Z,5.68
2022-12-28T16:26:41.229Z,5.63
2022-12-28T16:29:09.431Z,5.58
2022-12-28T16:31:39.015Z,5.55
2022-12-28T16:34:09.933Z,5.49
2022-12-28T16:36:38.177Z,5.45
2022-12-28T16:39:08.346Z,5.42
2022-12-28T16:41:37.440Z,5.41
2022-12-28T16:44:08.532Z,5.40
2022-12-28T16:46:36.813Z,5.38
2022-12-28T16:49:04.989Z,5.35
2022-12-28T16:51:33.206Z,5.33
2022-12-28T16:54:01.473Z,5.31
2022-12-28T16:56:29.690Z,5.30
2022-12-28T16:58:58.893Z,5.29
2022-12-28T17:01:27.955Z,5.28
2022-12-28T17:04:01.825Z,5.29
2022-12-28T17:06:31.846Z,5.28
2022-12-28T17:09:01.731Z,5.27
2022-12-28T17:11:30.384Z,5.28
2022-12-28T17:14:01.243Z,5.26
2022-12-28T17:16:29.864Z,5.26
2022-12-28T17:18:58.629Z,5.23
2022-12-28T17:21:26.963Z,5.20
2022-12-28T17:23:55.215Z,5.18
2022-12-28T17:26:23.450Z,5.16
2022-12-28T17:28:51.822Z,5.17
2022-12-28T17:31:21.651Z,5.17
2022-12-28T17:33:53.367Z,5.13
2022-12-28T17:36:21.220Z,5.09
2022-12-28T17:38:49.934Z,5.11
2022-12-28T17:41:20.748Z,5.10
2022-12-28T17:43:50.452Z,5.07
2022-12-28T17:46:19.487Z,5.05
2022-12-28T17:48:48.115Z,5.04
2022-12-28T17:51:16.616Z,5.05
2022-12-28T17:53:44.961Z,5.06
2022-12-28T17:56:15.391Z,5.07
2022-12-28T17:58:44.913Z,5.08
2022-12-28T18:01:13.853Z,5.09
2022-12-28T18:03:42.835Z,5.11
2022-12-28T18:06:11.262Z,5.11
2022-12-28T18:08:39.653Z,5.10
2022-12-28T18:11:10.482Z,5.10
2022-12-28T18:13:39.410Z,5.10
2022-12-28T18:16:11.558Z,5.13
2022-12-28T18:18:40.093Z,5.12
2022-12-28T18:21:16.460Z,5.10
2022-12-28T18:23:49.502Z,5.07
2022-12-28T18:26:19.800Z,5.09
2022-12-28T18:28:48.491Z,5.10
2022-12-28T18:31:17.164Z,5.05
2022-12-28T18:33:46.180Z,5.05
2022-12-28T18:36:18.039Z,5.03
2022-12-28T18:38:48.339Z,5.06
2022-12-28T18:41:21.659Z,5.06
2022-12-28T18:43:53.112Z,5.01
2022-12-28T18:46:21.669Z,5.00
2022-12-28T18:48:55.864Z,5.01
2022-12-28T18:51:24.171Z,4.99
2022-12-28T18:53:52.397Z,4.99
2022-12-28T18:56:21.390Z,5.00
2022-12-28T18:58:52.539Z,5.02
2022-12-28T19:02:04.599Z,5.02
2022-12-28T19:04:11.734Z,5.03
2022-12-28T19:06:40.845Z,5.04
2022-12-28T19:09:13.071Z,5.06
2022-12-28T19:11:41.895Z,5.07
2022-12-28T19:14:13.690Z,5.06
2022-12-28T19:16:43.338Z,5.04
2022-12-28T19:19:11.632Z,5.03
2022-12-28T19:21:41.538Z,5.01
2022-12-28T19:24:13.841Z,4.99
2022-12-28T19:26:42.633Z,5.00
2022-12-28T19:29:12.375Z,4.99
2022-12-28T19:31:40.919Z,4.99
2022-12-28T19:34:09.926Z,5.00
2022-12-28T19:36:41.320Z,4.98
2022-12-28T19:39:11.871Z,4.97
2022-12-28T19:41:45.272Z,4.97
2022-12-28T19:44:22.459Z,4.97
2022-12-28T19:46:53.377Z,4.95
2022-12-28T19:49:21.829Z,4.93
2022-12-28T19:51:50.149Z,4.90
2022-12-28T19:54:18.529Z,4.88
2022-12-28T19:56:46.824Z,4.80
2022-12-28T19:59:16.806Z,4.73
2022-12-28T20:01:45.169Z,4.71
2022-12-28T20:04:14.603Z,4.70
2022-12-28T20:06:46.135Z,4.69
2022-12-28T20:09:20.023Z,4.65
2022-12-28T20:11:48.750Z,4.67
2022-12-28T20:14:24.682Z,4.67
2022-12-28T20:16:54.000Z,4.67
2022-12-28T20:19:22.528Z,4.65
2022-12-28T20:21:51.890Z,4.64
2022-12-28T20:24:21.102Z,4.65
2022-12-28T20:26:49.722Z,4.63
2022-12-28T20:29:20.243Z,4.63
2022-12-28T20:31:51.041Z,4.61
2022-12-28T20:34:19.691Z,4.61
2022-12-28T20:36:48.793Z,4.61
2022-12-28T20:39:17.225Z,4.59
2022-12-28T20:42:09.258Z,4.51
2022-12-28T20:44:37.651Z,4.42
2022-12-28T20:47:06.254Z,4.35
2022-12-28T20:49:35.809Z,4.31
2022-12-28T20:52:04.446Z,4.26
2022-12-28T20:54:32.871Z,4.24
2022-12-28T20:57:03.381Z,4.20
2022-12-28T20:59:33.179Z,4.17
2022-12-28T21:02:01.712Z,4.16
2022-12-28T21:04:30.386Z,4.15
2022-12-28T21:06:58.836Z,4.15
2022-12-28T21:09:27.324Z,4.15
2022-12-28T21:11:55.830Z,4.21
2022-12-28T21:14:25.188Z,4.21
2022-12-28T21:16:53.592Z,4.23
2022-12-28T21:19:22.176Z,4.25
2022-12-28T21:21:50.422Z,4.25
2022-12-28T21:24:18.696Z,4.33
2022-12-28T21:26:47.009Z,4.40
2022-12-28T21:29:17.871Z,4.48
2022-12-28T21:31:51.320Z,4.53
2022-12-28T21:34:19.602Z,4.54
2022-12-28T21:36:47.862Z,4.58
2022-12-28T21:39:16.195Z,4.64
2022-12-28T21:41:50.351Z,4.63
2022-12-28T21:44:20.590Z,4.64
2022-12-28T21:46:50.545Z,4.67
2022-12-28T21:49:19.537Z,4.68
2022-12-28T21:51:47.770Z,4.73
2022-12-28T21:54:17.927Z,4.75
2022-12-28T21:56:50.494Z,4.76
2022-12-28T21:59:19.910Z,4.78
2022-12-28T22:02:06.674Z,4.80
2022-12-28T22:05:03.232Z,4.79
2022-12-28T22:07:34.322Z,4.82
2022-12-28T22:10:21.237Z,4.87
2022-12-28T22:12:49.441Z,4.91
2022-12-28T22:15:37.974Z,4.91
2022-12-28T22:18:08.237Z,4.93
2022-12-28T22:20:37.567Z,4.96
2022-12-28T22:23:06.301Z,4.95
2022-12-28T22:25:35.427Z,4.97
2022-12-28T22:28:05.071Z,4.98
2022-12-28T22:30:34.695Z,4.99
2022-12-28T22:33:03.596Z,5.02
2022-12-28T22:35:32.132Z,5.05
2022-12-28T22:38:00.531Z,5.07
2022-12-28T22:40:28.876Z,5.07
2022-12-28T22:42:57.130Z,5.13
2022-12-28T22:45:25.984Z,5.15
2022-12-28T22:47:58.502Z,5.15
2022-12-28T22:50:27.764Z,5.17
2022-12-28T22:52:56.600Z,5.22
2022-12-28T22:55:25.007Z,5.25
2022-12-28T22:57:53.224Z,5.28
2022-12-28T23:00:21.764Z,5.32
2022-12-28T23:02:50.234Z,5.36
2022-12-28T23:05:18.596Z,5.40
2022-12-28T23:07:46.788Z,5.42
2022-12-28T23:10:15.307Z,5.43
2022-12-28T23:12:43.529Z,5.46
2022-12-28T23:15:19.248Z,5.46
2022-12-28T23:17:48.508Z,5.45
2022-12-28T23:20:36.575Z,5.46
2022-12-28T23:23:23.269Z,5.50
2022-12-28T23:26:09.468Z,5.53
2022-12-28T23:28:37.683Z,5.52
2022-12-28T23:31:06.213Z,5.54
2022-12-28T23:33:35.844Z,5.54
2022-12-28T23:36:05.218Z,5.58
2022-12-28T23:38:34.076Z,5.57
2022-12-28T23:41:24.399Z,5.59
2022-12-28T23:43:52.625Z,5.63
2022-12-28T23:46:20.968Z,5.66
2022-12-28T23:48:49.230Z,5.69
2022-12-28T23:51:17.438Z,5.71
2022-12-28T23:53:45.884Z,5.73
2022-12-28T23:56:14.069Z,5.77
2022-12-28T23:58:42.321Z,5.81
